createdAt,value
2022-10-26T00:01:21.388Z,4.93
2022-10-26T00:03:48.657Z,6.07
2022-10-26T00:06:22.425Z,7.05
2022-10-26T00:08:52.539Z,6.35
2022-10-26T00:11:20.190Z,6.45
2022-10-26T00:13:48.061Z,6.72
2022-10-26T00:16:33.258Z,6.75
2022-10-26T00:19:00.515Z,6.30
2022-10-26T00:21:28.495Z,6.20
2022-10-26T00:23:55.610Z,6.28
2022-10-26T00:26:24.844Z,5.95
2022-10-26T00:28:57.230Z,5.97
2022-10-26T00:31:25.158Z,5.57
2022-10-26T00:33:57.111Z,6.32
2022-10-26T00:36:25.966Z,5.70
2022-10-26T00:38:56.049Z,7.47
2022-10-26T00:41:28.751Z,8.05
2022-10-26T00:43:56.601Z,8.65
2022-10-26T00:46:37.881Z,8.80
2022-10-26T00:51:54.312Z,7.95
2022-10-26T00:54:21.781Z,7.30
2022-10-26T00:56:52.199Z,6.90
2022-10-26T00:59:21.711Z,5.50
2022-10-26T01:01:49.931Z,5.88
2022-10-26T01:04:18.406Z,5.72
2022-10-26T01:06:46.718Z,6.70
2022-10-26T01:09:13.891Z,8.63
2022-10-26T01:11:43.156Z,11.40
2022-10-26T01:14:12.767Z,11.45
2022-10-26T01:17:08.089Z,14.13
2022-10-26T01:20:38.442Z,15.77
2022-10-26T01:23:24.567Z,17.08
2022-10-26T01:26:07.035Z,17.27
2022-10-26T01:28:55.455Z,16.20
2022-10-26T01:31:33.102Z,16.58
2022-10-26T01:34:09.160Z,16.27
2022-10-26T01:36:55.458Z,15.35
2022-10-26T01:39:36.417Z,15.88
2022-10-26T01:42:05.641Z,16.10
2022-10-26T01:44:42.476Z,14.43
2022-10-26T01:47:15.644Z,13.65
2022-10-26T01:49:49.927Z,13.73
2022-10-26T01:52:19.678Z,14.32
2022-10-26T01:54:47.321Z,12.20
2022-10-26T01:57:20.228Z,11.98
2022-10-26T02:00:10.065Z,10.88
2022-10-26T02:03:17.249Z,10.25
2022-10-26T02:06:04.615Z,10.75
2022-10-26T02:09:02.796Z,11.32
2022-10-26T02:11:41.870Z,10.93
2022-10-26T02:14:17.777Z,11.45
2022-10-26T02:16:58.596Z,9.65
2022-10-26T02:19:50.661Z,10.05
2022-10-26T02:22:23.674Z,9.00
2022-10-26T02:24:54.786Z,9.63
2022-10-26T02:27:31.496Z,8.38
2022-10-26T02:30:02.244Z,9.02
2022-10-26T02:32:35.117Z,7.95
2022-10-26T02:35:05.361Z,8.30
2022-10-26T02:37:35.768Z,8.70
2022-10-26T02:40:09.183Z,9.38
2022-10-26T02:42:37.670Z,8.63
2022-10-26T02:45:11.222Z,7.25
2022-10-26T02:47:41.304Z,7.55
2022-10-26T02:50:09.004Z,7.28
2022-10-26T02:53:01.553Z,7.18
2022-10-26T02:55:36.924Z,6.90
2022-10-26T02:58:12.355Z,6.53
2022-10-26T03:00:39.895Z,6.47
2022-10-26T03:03:07.100Z,6.97
2022-10-26T03:05:36.318Z,8.10
2022-10-26T03:08:12.592Z,8.65
2022-10-26T03:10:46.318Z,8.88
2022-10-26T03:13:14.375Z,9.80
2022-10-26T03:15:41.594Z,10.27
2022-10-26T03:18:08.778Z,10.07
2022-10-26T03:20:36.031Z,12.65
2022-10-26T03:23:03.361Z,12.25
2022-10-26T03:25:30.639Z,12.68
2022-10-26T03:28:02.467Z,15.00
2022-10-26T03:30:33.222Z,15.13
2022-10-26T03:33:05.061Z,17.27
2022-10-26T03:35:32.626Z,16.75
2022-10-26T03:37:59.737Z,18.45
2022-10-26T03:40:29.355Z,17.75
2022-10-26T03:42:56.500Z,18.50
2022-10-26T03:45:23.656Z,17.48
2022-10-26T03:47:51.002Z,16.35
2022-10-26T03:50:21.951Z,19.58
2022-10-26T03:52:50.725Z,18.80
2022-10-26T03:55:20.659Z,20.30
2022-10-26T03:57:50.137Z,19.05
2022-10-26T04:00:18.130Z,18.80
2022-10-26T04:02:57.547Z,17.70
2022-10-26T04:05:27.299Z,17.90
2022-10-26T04:08:04.587Z,20.42
2022-10-26T04:10:32.440Z,19.25
2022-10-26T04:13:23.962Z,18.25
2022-10-26T04:15:51.538Z,18.23
2022-10-26T04:18:18.789Z,17.27
2022-10-26T04:20:56.851Z,16.55
2022-10-26T04:25:50.965Z,16.10
2022-10-26T04:28:19.509Z,15.60
2022-10-26T04:30:48.107Z,14.05
2022-10-26T04:33:15.208Z,13.40
2022-10-26T04:35:43.113Z,14.15
2022-10-26T04:38:10.780Z,14.77
2022-10-26T04:40:37.895Z,13.88
2022-10-26T04:43:07.266Z,14.35
2022-10-26T04:45:35.028Z,16.77
2022-10-26T04:48:06.032Z,15.95
2022-10-26T04:50:36.066Z,16.15
2022-10-26T04:53:04.689Z,15.85
2022-10-26T04:55:31.772Z,17.55
2022-10-26T04:58:01.812Z,16.67
2022-10-26T05:00:33.135Z,16.60
2022-10-26T05:03:02.823Z,16.00
2022-10-26T05:05:32.421Z,15.05
2022-10-26T05:08:04.520Z,14.70
2022-10-26T05:10:31.856Z,13.75
2022-10-26T05:13:02.302Z,13.60
2022-10-26T05:15:32.224Z,12.18
2022-10-26T05:18:03.436Z,11.20
2022-10-26T05:20:33.534Z,11.32
2022-10-26T05:23:04.136Z,9.30
2022-10-26T05:25:37.297Z,8.80
2022-10-26T05:28:13.387Z,9.23
2022-10-26T05:30:45.389Z,8.25
2022-10-26T05:33:13.993Z,8.35
2022-10-26T05:35:41.731Z,7.97
2022-10-26T05:38:17.692Z,8.43
2022-10-26T05:40:53.444Z,7.70
2022-10-26T05:43:25.189Z,6.75
2022-10-26T05:45:52.468Z,6.68
2022-10-26T05:48:23.032Z,5.72
2022-10-26T05:50:50.288Z,5.60
2022-10-26T05:53:17.590Z,6.00
2022-10-26T05:55:47.266Z,5.60
2022-10-26T05:58:15.712Z,5.13
2022-10-26T06:00:59.299Z,5.78
2022-10-26T06:03:52.400Z,5.72
2022-10-26T06:06:19.852Z,5.65
2022-10-26T06:08:47.396Z,5.80
2022-10-26T06:11:17.349Z,4.97
2022-10-26T06:13:44.896Z,5.55
2022-10-26T06:16:26.831Z,5.97
2022-10-26T06:19:42.349Z,5.95
2022-10-26T06:22:48.256Z,5.95
2022-10-26T06:25:52.810Z,6.20
2022-10-26T06:28:47.300Z,6.50
2022-10-26T06:31:17.711Z,6.50
2022-10-26T06:33:45.280Z,6.07
2022-10-26T06:36:27.708Z,7.15
2022-10-26T06:41:46.478Z,6.25
2022-10-26T06:44:23.736Z,6.47
2022-10-26T06:47:37.805Z,6.72
2022-10-26T06:50:38.976Z,6.03
2022-10-26T06:56:13.432Z,6.07
2022-10-26T06:58:44.814Z,6.38
2022-10-26T07:01:12.867Z,6.87
2022-10-26T07:03:40.093Z,7.30
2022-10-26T07:06:07.498Z,6.50
2022-10-26T07:08:37.303Z,5.80
2022-10-26T07:11:04.870Z,5.30
2022-10-26T07:13:31.952Z,4.40
2022-10-26T07:15:59.004Z,4.50
2022-10-26T07:18:28.519Z,4.55
2022-10-26T07:21:07.234Z,3.92
2022-10-26T07:23:34.284Z,5.00
2022-10-26T07:26:01.405Z,5.15
2022-10-26T07:28:28.609Z,5.35
2022-10-26T07:30:58.256Z,5.70
2022-10-26T07:33:25.361Z,5.50
2022-10-26T07:35:54.233Z,5.93
2022-10-26T07:38:25.889Z,5.60
2022-10-26T07:40:54.405Z,4.75
2022-10-26T07:43:21.622Z,5.72
2022-10-26T07:45:51.897Z,5.60
2022-10-26T07:48:21.548Z,6.32
2022-10-26T07:50:51.023Z,5.70
2022-10-26T07:53:18.012Z,5.18
2022-10-26T07:55:57.197Z,5.15
2022-10-26T07:58:26.334Z,5.38
2022-10-26T08:00:54.565Z,5.63
2022-10-26T08:03:22.124Z,6.20
2022-10-26T08:05:55.895Z,6.90
2022-10-26T08:08:23.436Z,5.82
2022-10-26T08:10:55.068Z,6.70
2022-10-26T08:13:24.480Z,6.03
2022-10-26T08:16:00.139Z,6.68
2022-10-26T08:18:28.227Z,6.65
2022-10-26T08:21:01.814Z,7.35
2022-10-26T08:23:37.546Z,7.05
2022-10-26T08:26:05.146Z,6.85
2022-10-26T08:28:32.391Z,5.88
2022-10-26T08:30:59.527Z,5.53
2022-10-26T08:33:26.716Z,6.28
2022-10-26T08:36:06.513Z,6.00
2022-10-26T08:38:36.885Z,6.47
2022-10-26T08:41:10.644Z,6.72
2022-10-26T08:43:50.453Z,6.15
2022-10-26T08:46:35.137Z,5.68
2022-10-26T08:49:44.319Z,6.57
2022-10-26T08:52:18.029Z,5.53
2022-10-26T08:54:57.472Z,5.95
2022-10-26T08:57:39.752Z,5.95
2022-10-26T09:02:55.410Z,7.05
2022-10-26T09:05:43.968Z,6.63
2022-10-26T09:08:56.789Z,6.53
2022-10-26T09:15:04.733Z,5.40
2022-10-26T09:17:57.659Z,5.35
2022-10-26T09:20:48.696Z,5.47
2022-10-26T09:23:31.637Z,5.70
2022-10-26T09:26:05.868Z,6.82
2022-10-26T09:28:37.836Z,6.13
2022-10-26T09:31:05.856Z,6.75
2022-10-26T09:33:39.822Z,6.07
2022-10-26T09:36:22.273Z,5.88
2022-10-26T09:39:42.483Z,6.90
2022-10-26T09:42:24.672Z,6.93
2022-10-26T09:45:17.115Z,6.20
2022-10-26T09:47:52.942Z,6.65
2022-10-26T09:50:37.227Z,6.68
2022-10-26T09:53:04.730Z,6.90
2022-10-26T09:55:34.533Z,6.53
2022-10-26T09:58:06.448Z,7.20
2022-10-26T10:03:32.153Z,7.55
2022-10-26T10:09:21.119Z,7.13
2022-10-26T10:11:56.656Z,7.85
2022-10-26T10:14:57.651Z,7.90
2022-10-26T10:17:25.932Z,8.00
2022-10-26T10:19:53.552Z,8.68
2022-10-26T10:22:25.787Z,8.90
2022-10-26T10:27:33.590Z,8.52
2022-10-26T10:30:22.534Z,9.10
2022-10-26T10:33:11.392Z,9.52
2022-10-26T10:35:49.625Z,8.25
2022-10-26T10:38:21.236Z,9.10
2022-10-26T10:40:58.297Z,9.40
2022-10-26T10:43:26.696Z,9.15
2022-10-26T10:45:59.644Z,8.70
2022-10-26T10:48:29.456Z,9.77
2022-10-26T10:51:03.359Z,9.52
2022-10-26T10:53:45.719Z,9.85
2022-10-26T10:59:11.055Z,9.18
2022-10-26T11:02:20.641Z,10.02
2022-10-26T11:05:33.414Z,9.35
2022-10-26T11:08:14.247Z,10.82
2022-10-26T11:10:53.528Z,9.80
2022-10-26T11:14:16.989Z,9.25
2022-10-26T11:16:59.270Z,9.98
2022-10-26T11:19:46.361Z,9.57
2022-10-26T11:22:24.222Z,9.00
2022-10-26T11:25:06.065Z,9.38
2022-10-26T11:28:11.118Z,9.50
2022-10-26T11:30:52.371Z,9.68
2022-10-26T11:33:40.150Z,8.57
2022-10-26T11:36:18.474Z,8.57
2022-10-26T11:39:02.753Z,9.00
2022-10-26T11:41:56.005Z,8.52
2022-10-26T11:44:38.684Z,8.38
2022-10-26T11:47:23.923Z,8.20
2022-10-26T11:50:21.878Z,9.13
2022-10-26T11:53:03.720Z,8.48
2022-10-26T11:55:31.815Z,8.43
2022-10-26T11:57:59.204Z,8.82
2022-10-26T12:00:27.096Z,8.63
2022-10-26T12:03:30.474Z,8.27
2022-10-26T12:05:57.582Z,7.70
2022-10-26T12:08:43.934Z,8.02
2022-10-26T12:11:58.590Z,8.10
2022-10-26T12:14:39.556Z,9.23
2022-10-26T12:17:28.358Z,8.68
2022-10-26T12:20:53.724Z,8.70
2022-10-26T12:23:33.919Z,7.85
2022-10-26T12:26:39.871Z,7.95
2022-10-26T12:29:06.797Z,8.30
2022-10-26T12:31:36.865Z,8.82
2022-10-26T12:34:22.245Z,8.30
2022-10-26T12:36:55.368Z,8.35
2022-10-26T12:39:32.902Z,8.32
2022-10-26T12:42:26.007Z,8.68
2022-10-26T12:44:53.521Z,8.93
2022-10-26T12:47:32.818Z,8.65
2022-10-26T12:50:09.426Z,9.20
2022-10-26T12:52:48.863Z,9.27
2022-10-26T12:55:36.603Z,8.52
2022-10-26T12:58:45.143Z,9.40
2022-10-26T13:01:24.261Z,9.02
2022-10-26T13:04:09.211Z,8.25
2022-10-26T13:06:48.027Z,8.40
2022-10-26T13:09:33.158Z,8.13
2022-10-26T13:12:03.861Z,8.32
2022-10-26T13:14:41.310Z,7.70
2022-10-26T13:17:28.784Z,8.10
2022-10-26T13:20:01.003Z,7.50
2022-10-26T13:25:03.963Z,6.95
2022-10-26T13:27:36.468Z,7.22
2022-10-26T13:30:09.639Z,7.85
2022-10-26T13:33:02.845Z,7.28
2022-10-26T13:35:32.593Z,6.70
2022-10-26T13:38:07.479Z,7.22
2022-10-26T13:40:38.493Z,7.35
2022-10-26T13:43:19.729Z,7.88
2022-10-26T13:46:01.329Z,7.72
2022-10-26T13:48:41.865Z,7.45
2022-10-26T13:51:30.315Z,7.07
2022-10-26T13:54:03.351Z,7.40
2022-10-26T13:56:39.496Z,8.65
2022-10-26T13:59:13.869Z,7.63
2022-10-26T14:01:41.283Z,7.72
2022-10-26T14:04:28.821Z,8.07
2022-10-26T14:06:56.099Z,7.35
2022-10-26T14:09:25.798Z,7.95
2022-10-26T14:12:00.128Z,8.32
2022-10-26T14:14:34.992Z,8.10
2022-10-26T14:17:02.791Z,8.15
2022-10-26T14:19:36.471Z,10.48
2022-10-26T14:22:04.386Z,11.98
2022-10-26T14:24:48.256Z,12.38
2022-10-26T14:27:24.144Z,9.18
2022-10-26T14:30:17.129Z,10.18
2022-10-26T14:32:40.807Z,9.43
2022-10-26T14:35:13.704Z,8.65
2022-10-26T14:38:26.519Z,9.05
2022-10-26T14:43:26.063Z,9.07
2022-10-26T14:45:57.430Z,10.07
2022-10-26T14:48:35.026Z,9.10
2022-10-26T14:51:06.049Z,8.85
2022-10-26T14:53:40.645Z,9.30
2022-10-26T14:56:41.009Z,9.52
2022-10-26T14:59:32.279Z,8.80
2022-10-26T15:02:11.378Z,11.48
2022-10-26T15:04:42.194Z,10.73
2022-10-26T15:07:15.400Z,10.27
2022-10-26T15:09:46.907Z,10.10
2022-10-26T15:12:36.972Z,11.55
2022-10-26T15:15:23.741Z,11.80
2022-10-26T15:17:57.809Z,9.52
2022-10-26T15:20:27.668Z,10.98
2022-10-26T15:23:02.873Z,10.63
2022-10-26T15:25:34.879Z,10.35
2022-10-26T15:28:31.162Z,12.43
2022-10-26T15:31:11.718Z,10.95
2022-10-26T15:34:04.857Z,10.27
2022-10-26T15:36:35.839Z,11.18
2022-10-26T15:39:02.966Z,11.77
2022-10-26T15:41:40.035Z,12.27
2022-10-26T15:44:20.461Z,13.40
2022-10-26T15:46:47.836Z,14.75
2022-10-26T15:49:20.802Z,15.10
2022-10-26T15:51:49.491Z,14.30
2022-10-26T15:54:16.718Z,14.88
2022-10-26T15:56:44.316Z,15.70
2022-10-26T15:59:18.594Z,11.98
2022-10-26T16:01:48.337Z,14.00
2022-10-26T16:04:15.993Z,15.80
2022-10-26T16:06:43.423Z,16.77
2022-10-26T16:09:17.918Z,15.10
2022-10-26T16:11:45.496Z,13.82
2022-10-26T16:14:13.150Z,13.63
2022-10-26T16:16:42.592Z,16.05
2022-10-26T16:19:30.455Z,17.98
2022-10-26T16:21:59.036Z,27.58
2022-10-26T16:24:30.663Z,32.92
2022-10-26T16:26:58.354Z,21.85
2022-10-26T16:29:25.471Z,30.45
2022-10-26T16:31:52.624Z,33.47
2022-10-26T16:34:19.777Z,28.05
2022-10-26T16:36:46.957Z,25.95
2022-10-26T16:39:14.295Z,28.27
2022-10-26T16:41:41.415Z,28.55
2022-10-26T16:44:08.630Z,28.27
2022-10-26T16:46:35.800Z,33.30
2022-10-26T16:49:02.886Z,32.78
2022-10-26T16:51:32.677Z,28.52
2022-10-26T16:54:00.114Z,28.67
2022-10-26T16:56:30.126Z,32.50
2022-10-26T16:58:57.780Z,32.33
2022-10-26T17:01:27.945Z,32.15
2022-10-26T17:03:55.252Z,28.95
2022-10-26T17:06:22.506Z,30.92
2022-10-26T17:08:49.928Z,29.40
2022-10-26T17:11:23.137Z,26.50
2022-10-26T17:13:54.954Z,27.38
2022-10-26T17:16:24.981Z,26.98
2022-10-26T17:18:54.065Z,26.48
2022-10-26T17:21:38.170Z,24.70
2022-10-26T17:24:06.874Z,26.60
2022-10-26T17:26:36.486Z,28.20
2022-10-26T17:29:04.151Z,27.88
2022-10-26T17:31:31.299Z,25.45
2022-10-26T17:33:58.801Z,27.35
2022-10-26T17:36:27.649Z,25.08
2022-10-26T17:38:58.484Z,23.90
2022-10-26T17:41:25.717Z,25.85
2022-10-26T17:43:53.938Z,28.45
2022-10-26T17:46:27.294Z,31.33
2022-10-26T17:48:59.538Z,28.77
2022-10-26T17:53:59.134Z,27.77
2022-10-26T17:56:29.983Z,32.13
2022-10-26T17:59:03.889Z,29.73
2022-10-26T18:01:32.061Z,39.20
2022-10-26T18:03:59.638Z,36.05
2022-10-26T18:06:27.673Z,36.78
2022-10-26T18:08:59.394Z,53.60
2022-10-26T18:11:27.608Z,64.40
2022-10-26T18:14:00.954Z,80.03
2022-10-26T18:16:29.011Z,53.08
2022-10-26T18:19:01.706Z,54.63
2022-10-26T18:21:32.695Z,57.10
2022-10-26T18:24:00.359Z,59.15
2022-10-26T18:26:31.744Z,57.89
2022-10-26T18:29:01.005Z,58.80
2022-10-26T18:31:33.171Z,55.13
2022-10-26T18:36:30.970Z,52.83
2022-10-26T18:39:00.667Z,49.42
2022-10-26T18:41:28.874Z,49.05
2022-10-26T18:43:59.974Z,49.80
2022-10-26T18:46:33.856Z,45.65
2022-10-26T18:49:01.227Z,49.88
2022-10-26T18:51:34.679Z,47.47
2022-10-26T18:54:02.297Z,48.83
2022-10-26T18:56:29.584Z,46.22
2022-10-26T18:59:05.893Z,42.67
2022-10-26T19:01:35.919Z,43.47
2022-10-26T19:04:07.482Z,43.00
2022-10-26T19:06:40.680Z,44.10
2022-10-26T19:09:10.195Z,44.53
2022-10-26T19:11:38.335Z,45.88
2022-10-26T19:14:07.035Z,44.40
2022-10-26T19:16:45.758Z,44.88
2022-10-26T19:19:15.316Z,42.88
2022-10-26T19:21:42.415Z,44.67
2022-10-26T19:24:21.519Z,44.40
2022-10-26T19:26:50.663Z,43.15
2022-10-26T19:29:21.772Z,45.17
2022-10-26T19:31:53.176Z,43.97
2022-10-26T19:34:22.714Z,44.77
2022-10-26T19:36:49.907Z,44.10
2022-10-26T19:39:18.238Z,45.08
2022-10-26T19:41:48.560Z,45.92
2022-10-26T19:44:16.572Z,45.45
2022-10-26T19:46:45.095Z,44.95
2022-10-26T19:49:13.140Z,46.80
2022-10-26T19:51:40.366Z,44.05
2022-10-26T19:54:07.731Z,45.33
2022-10-26T19:56:37.104Z,47.53
2022-10-26T19:59:05.630Z,44.97
2022-10-26T20:01:33.226Z,42.42
2022-10-26T20:04:02.595Z,43.35
2022-10-26T20:06:31.065Z,46.08
2022-10-26T20:08:58.874Z,47.42
2022-10-26T20:11:26.152Z,47.00
2022-10-26T20:13:55.584Z,48.22
2022-10-26T20:16:22.895Z,49.83
2022-10-26T20:18:49.993Z,48.00
2022-10-26T20:21:18.001Z,51.33
2022-10-26T20:23:46.869Z,50.30
2022-10-26T20:26:20.151Z,52.60
2022-10-26T20:28:51.980Z,47.33
2022-10-26T20:31:20.144Z,47.20
2022-10-26T20:34:00.754Z,48.33
2022-10-26T20:36:30.833Z,45.25
2022-10-26T20:39:01.283Z,46.22
2022-10-26T20:41:28.724Z,42.88
2022-10-26T20:43:58.051Z,42.47
2022-10-26T20:46:27.812Z,42.10
2022-10-26T20:48:55.321Z,41.40
2022-10-26T20:51:38.549Z,35.63
2022-10-26T20:54:26.077Z,37.90
2022-10-26T20:56:59.694Z,37.88
2022-10-26T20:59:50.970Z,37.00
2022-10-26T21:02:21.280Z,33.13
2022-10-26T21:04:48.502Z,29.27
2022-10-26T21:07:15.665Z,30.25
2022-10-26T21:09:42.897Z,30.02
2022-10-26T21:12:12.671Z,26.95
2022-10-26T21:14:41.036Z,27.10
2022-10-26T21:17:11.337Z,26.20
2022-10-26T21:19:38.466Z,24.58
2022-10-26T21:22:05.555Z,25.23
2022-10-26T21:24:32.912Z,24.38
2022-10-26T21:27:00.011Z,24.25
2022-10-26T21:29:27.179Z,23.23
2022-10-26T21:31:54.254Z,23.73
2022-10-26T21:34:21.361Z,23.85
2022-10-26T21:36:48.574Z,24.13
2022-10-26T21:39:15.617Z,24.48
2022-10-26T21:41:43.986Z,23.92
2022-10-26T21:44:24.655Z,24.13
2022-10-26T21:46:58.312Z,24.80
2022-10-26T21:49:25.405Z,23.77
2022-10-26T21:51:52.439Z,23.40
2022-10-26T21:54:19.572Z,22.50
2022-10-26T21:56:49.153Z,23.88
2022-10-26T21:59:18.339Z,23.45
2022-10-26T22:01:45.509Z,23.60
2022-10-26T22:04:12.809Z,23.35
2022-10-26T22:06:42.528Z,24.27
2022-10-26T22:09:12.119Z,23.27
2022-10-26T22:11:39.277Z,23.60
2022-10-26T22:14:06.572Z,22.08
2022-10-26T22:16:33.852Z,22.20
2022-10-26T22:19:07.546Z,23.15
2022-10-26T22:21:38.369Z,22.50
2022-10-26T22:24:06.467Z,22.25
2022-10-26T22:26:39.133Z,21.63
2022-10-26T22:29:10.179Z,21.60
2022-10-26T22:31:42.259Z,21.55
2022-10-26T22:34:16.170Z,21.60
2022-10-26T22:36:46.269Z,21.70
2022-10-26T22:39:13.392Z,21.55
2022-10-26T22:41:40.519Z,21.38
2022-10-26T22:44:07.676Z,20.77
2022-10-26T22:46:34.950Z,22.05
2022-10-26T22:49:03.149Z,22.00
2022-10-26T22:51:33.495Z,22.10
2022-10-26T22:54:05.294Z,22.35
2022-10-26T22:56:35.450Z,20.13
2022-10-26T22:59:02.829Z,20.80
2022-10-26T23:01:39.276Z,22.02
2022-10-26T23:04:07.997Z,21.13
2022-10-26T23:06:35.169Z,21.75
2022-10-26T23:09:02.424Z,22.13
2022-10-26T23:11:29.969Z,21.75
2022-10-26T23:14:00.830Z,22.05
2022-10-26T23:16:31.350Z,22.35
2022-10-26T23:18:59.858Z,21.35
2022-10-26T23:21:28.441Z,22.88
2022-10-26T23:23:56.632Z,22.80
2022-10-26T23:26:23.969Z,23.13
2022-10-26T23:28:53.737Z,22.98
2022-10-26T23:31:27.007Z,22.17
2022-10-26T23:33:56.441Z,22.98
2022-10-26T23:36:25.882Z,22.23
2022-10-26T23:38:55.263Z,23.23
2022-10-26T23:41:22.491Z,23.05
2022-10-26T23:43:51.909Z,22.83
2022-10-26T23:46:19.061Z,22.42
2022-10-26T23:48:46.316Z,23.52
2022-10-26T23:51:13.401Z,23.27
2022-10-26T23:53:40.634Z,22.50
2022-10-26T23:56:08.113Z,23.08
2022-10-26T23:58:37.665Z,23.48
